sensor_id;sensor_type;location;lat;lon;timestamp;pressure;altitude;pressure_sealevel;temperature;humidity
40766;BME280;26474;52.556;13.420;2022-07-10T00:00:13;101395.81;;;15.84;55.85
40766;BME280;26474;52.556;13.420;2022-07-10T00:02:41;101389.78;;;15.92;55.70
40766;BME280;26474;52.556;13.420;2022-07-10T00:05:09;101395.34;;;15.90;55.92
40766;BME280;26474;52.556;13.420;2022-07-10T00:07:41;101390.16;;;15.87;56.00
40766;BME280;26474;52.556;13.420;2022-07-10T00:10:07;101397.91;;;15.81;56.13
40766;BME280;26474;52.556;13.420;2022-07-10T00:12:34;101386.81;;;15.84;55.58
40766;BME280;26474;52.556;13.420;2022-07-10T00:15:01;101397.81;;;15.82;55.65
40766;BME280;26474;52.556;13.420;2022-07-10T00:17:27;101394.59;;;15.88;55.83
40766;BME280;26474;52.556;13.420;2022-07-10T00:19:54;101387.19;;;15.90;55.53
40766;BME280;26474;52.556;13.420;2022-07-10T00:22:20;101382.50;;;15.92;55.53
40766;BME280;26474;52.556;13.420;2022-07-10T00:24:47;101376.91;;;15.83;55.33
40766;BME280;26474;52.556;13.420;2022-07-10T00:27:13;101387.78;;;15.83;55.70
40766;BME280;26474;52.556;13.420;2022-07-10T00:29:40;101380.97;;;15.77;55.56
40766;BME280;26474;52.556;13.420;2022-07-10T00:32:07;101373.72;;;15.89;55.47
40766;BME280;26474;52.556;13.420;2022-07-10T00:34:34;101383.22;;;15.83;55.91
40766;BME280;26474;52.556;13.420;2022-07-10T00:37:02;101376.78;;;15.84;55.91
40766;BME280;26474;52.556;13.420;2022-07-10T00:39:29;101371.84;;;15.89;55.72
40766;BME280;26474;52.556;13.420;2022-07-10T00:41:55;101369.13;;;15.78;56.15
40766;BME280;26474;52.556;13.420;2022-07-10T00:44:31;101363.94;;;15.86;56.06
40766;BME280;26474;52.556;13.420;2022-07-10T00:46:57;101362.31;;;15.84;55.96
40766;BME280;26474;52.556;13.420;2022-07-10T00:49:24;101364.41;;;15.69;56.57
40766;BME280;26474;52.556;13.420;2022-07-10T00:51:50;101362.31;;;15.72;56.40
40766;BME280;26474;52.556;13.420;2022-07-10T00:54:17;101357.00;;;15.82;56.25
40766;BME280;26474;52.556;13.420;2022-07-10T00:56:44;101357.13;;;15.81;56.25
40766;BME280;26474;52.556;13.420;2022-07-10T00:59:10;101361.94;;;15.77;56.80
40766;BME280;26474;52.556;13.420;2022-07-10T01:01:37;101349.09;;;15.79;56.22
40766;BME280;26474;52.556;13.420;2022-07-10T01:04:03;101344.41;;;15.81;56.47
40766;BME280;26474;52.556;13.420;2022-07-10T01:06:30;101350.81;;;15.69;56.73
40766;BME280;26474;52.556;13.420;2022-07-10T01:08:56;101347.22;;;15.68;56.75
40766;BME280;26474;52.556;13.420;2022-07-10T01:11:23;101348.31;;;15.66;56.76
40766;BME280;26474;52.556;13.420;2022-07-10T01:13:50;101345.88;;;15.74;56.36
40766;BME280;26474;52.556;13.420;2022-07-10T01:16:17;101340.78;;;15.69;56.52
40766;BME280;26474;52.556;13.420;2022-07-10T01:18:43;101335.59;;;15.66;56.52
40766;BME280;26474;52.556;13.420;2022-07-10T01:21:32;101337.72;;;15.74;56.53
40766;BME280;26474;52.556;13.420;2022-07-10T01:24:01;101334.75;;;15.77;56.52
40766;BME280;26474;52.556;13.420;2022-07-10T01:26:29;101336.97;;;15.83;56.40
40766;BME280;26474;52.556;13.420;2022-07-10T01:28:56;101340.69;;;15.82;56.56
40766;BME280;26474;52.556;13.420;2022-07-10T01:31:26;101345.38;;;15.80;56.48
40766;BME280;26474;52.556;13.420;2022-07-10T01:33:54;101350.56;;;15.83;56.42
40766;BME280;26474;52.556;13.420;2022-07-10T01:36:21;101343.41;;;15.82;56.65
40766;BME280;26474;52.556;13.420;2022-07-10T01:38:51;101338.22;;;15.79;56.65
40766;BME280;26474;52.556;13.420;2022-07-10T01:41:18;101336.72;;;15.75;56.76
40766;BME280;26474;52.556;13.420;2022-07-10T01:43:44;101337.22;;;15.69;56.93
40766;BME280;26474;52.556;13.420;2022-07-10T01:46:12;101336.09;;;15.71;56.48
40766;BME280;26474;52.556;13.420;2022-07-10T01:48:39;101340.66;;;15.71;56.93
40766;BME280;26474;52.556;13.420;2022-07-10T01:51:08;101337.81;;;15.61;57.09
40766;BME280;26474;52.556;13.420;2022-07-10T01:53:34;101335.72;;;15.65;57.08
40766;BME280;26474;52.556;13.420;2022-07-10T01:56:04;101339.66;;;15.61;57.34
40766;BME280;26474;52.556;13.420;2022-07-10T01:58:31;101337.44;;;15.66;57.44
40766;BME280;26474;52.556;13.420;2022-07-10T02:00:58;101329.16;;;15.67;57.16
40766;BME280;26474;52.556;13.420;2022-07-10T02:03:25;101330.03;;;15.68;57.45
40766;BME280;26474;52.556;13.420;2022-07-10T02:06:10;101340.03;;;15.67;57.07
40766;BME280;26474;52.556;13.420;2022-07-10T02:08:36;101341.41;;;15.62;56.63
40766;BME280;26474;52.556;13.420;2022-07-10T02:11:03;101330.53;;;15.62;57.12
40766;BME280;26474;52.556;13.420;2022-07-10T02:13:30;101335.59;;;15.66;57.12
40766;BME280;26474;52.556;13.420;2022-07-10T02:15:58;101342.78;;;15.55;57.48
40766;BME280;26474;52.556;13.420;2022-07-10T02:18:25;101334.63;;;15.43;57.40
40766;BME280;26474;52.556;13.420;2022-07-10T02:20:52;101333.38;;;15.48;57.86
40766;BME280;26474;52.556;13.420;2022-07-10T02:23:19;101332.38;;;15.37;58.30
40766;BME280;26474;52.556;13.420;2022-07-10T02:25:45;101327.31;;;15.44;57.84
40766;BME280;26474;52.556;13.420;2022-07-10T02:28:11;101330.91;;;15.44;58.14
40766;BME280;26474;52.556;13.420;2022-07-10T02:30:38;101323.50;;;15.47;57.75
40766;BME280;26474;52.556;13.420;2022-07-10T02:33:04;101326.97;;;15.49;57.79
40766;BME280;26474;52.556;13.420;2022-07-10T02:35:31;101325.47;;;15.44;58.01
40766;BME280;26474;52.556;13.420;2022-07-10T02:37:57;101331.19;;;15.53;57.97
40766;BME280;26474;52.556;13.420;2022-07-10T02:40:24;101317.47;;;15.54;57.72
40766;BME280;26474;52.556;13.420;2022-07-10T02:42:51;101325.38;;;15.57;57.89
40766;BME280;26474;52.556;13.420;2022-07-10T02:45:17;101318.44;;;15.53;58.16
40766;BME280;26474;52.556;13.420;2022-07-10T02:47:44;101317.94;;;15.48;58.54
40766;BME280;26474;52.556;13.420;2022-07-10T02:50:10;101322.41;;;15.49;58.67
40766;BME280;26474;52.556;13.420;2022-07-10T02:52:37;101314.59;;;15.44;58.74
40766;BME280;26474;52.556;13.420;2022-07-10T02:55:03;101320.00;;;15.33;59.35
40766;BME280;26474;52.556;13.420;2022-07-10T02:57:30;101319.78;;;15.36;59.31
40766;BME280;26474;52.556;13.420;2022-07-10T02:59:56;101316.53;;;15.31;59.88
40766;BME280;26474;52.556;13.420;2022-07-10T03:02:23;101319.72;;;15.25;59.89
40766;BME280;26474;52.556;13.420;2022-07-10T03:04:49;101313.59;;;15.34;59.90
40766;BME280;26474;52.556;13.420;2022-07-10T03:07:15;101316.00;;;15.15;60.04
40766;BME280;26474;52.556;13.420;2022-07-10T03:09:42;101316.03;;;15.26;60.10
40766;BME280;26474;52.556;13.420;2022-07-10T03:12:08;101314.03;;;15.17;59.92
40766;BME280;26474;52.556;13.420;2022-07-10T03:14:35;101316.53;;;15.31;59.78
40766;BME280;26474;52.556;13.420;2022-07-10T03:17:01;101309.38;;;15.30;59.94
40766;BME280;26474;52.556;13.420;2022-07-10T03:19:28;101308.00;;;15.25;59.83
40766;BME280;26474;52.556;13.420;2022-07-10T03:21:54;101308.13;;;15.23;60.13
40766;BME280;26474;52.556;13.420;2022-07-10T03:24:20;101308.28;;;15.33;60.10
40766;BME280;26474;52.556;13.420;2022-07-10T03:26:47;101307.59;;;15.18;60.05
40766;BME280;26474;52.556;13.420;2022-07-10T03:29:13;101314.25;;;15.14;60.42
40766;BME280;26474;52.556;13.420;2022-07-10T03:31:46;101310.88;;;15.10;60.44
40766;BME280;26474;52.556;13.420;2022-07-10T03:34:12;101305.25;;;15.14;60.72
40766;BME280;26474;52.556;13.420;2022-07-10T03:36:39;101299.91;;;15.12;60.50
40766;BME280;26474;52.556;13.420;2022-07-10T03:39:05;101293.84;;;15.08;60.94
40766;BME280;26474;52.556;13.420;2022-07-10T03:41:32;101301.69;;;15.24;60.74
40766;BME280;26474;52.556;13.420;2022-07-10T03:43:58;101302.56;;;15.25;60.99
40766;BME280;26474;52.556;13.420;2022-07-10T03:46:25;101310.88;;;15.34;60.76
40766;BME280;26474;52.556;13.420;2022-07-10T03:48:51;101300.72;;;15.25;60.97
40766;BME280;26474;52.556;13.420;2022-07-10T03:51:18;101294.56;;;15.34;60.79
40766;BME280;26474;52.556;13.420;2022-07-10T03:53:44;101290.84;;;15.35;60.47
40766;BME280;26474;52.556;13.420;2022-07-10T03:56:11;101305.19;;;15.37;60.46
40766;BME280;26474;52.556;13.420;2022-07-10T03:58:57;101299.13;;;15.34;60.58
40766;BME280;26474;52.556;13.420;2022-07-10T04:01:24;101299.63;;;15.39;60.73
40766;BME280;26474;52.556;13.420;2022-07-10T04:03:50;101302.22;;;15.29;60.72
40766;BME280;26474;52.556;13.420;2022-07-10T04:06:17;101291.81;;;15.23;61.22
40766;BME280;26474;52.556;13.420;2022-07-10T04:08:43;101301.47;;;15.03;61.91
40766;BME280;26474;52.556;13.420;2022-07-10T04:11:09;101302.72;;;15.10;61.65
40766;BME280;26474;52.556;13.420;2022-07-10T04:13:36;101303.19;;;15.04;62.01
40766;BME280;26474;52.556;13.420;2022-07-10T04:16:03;101305.56;;;15.09;62.18
40766;BME280;26474;52.556;13.420;2022-07-10T04:18:29;101298.34;;;14.97;62.76
40766;BME280;26474;52.556;13.420;2022-07-10T04:20:56;101296.66;;;15.07;62.09
40766;BME280;26474;52.556;13.420;2022-07-10T04:23:22;101296.50;;;15.21;61.77
40766;BME280;26474;52.556;13.420;2022-07-10T04:25:49;101298.16;;;15.11;62.02
40766;BME280;26474;52.556;13.420;2022-07-10T04:28:15;101290.31;;;15.19;61.85
40766;BME280;26474;52.556;13.420;2022-07-10T04:30:42;101290.09;;;15.22;61.86
40766;BME280;26474;52.556;13.420;2022-07-10T04:33:08;101291.34;;;15.29;61.65
40766;BME280;26474;52.556;13.420;2022-07-10T04:35:35;101293.56;;;15.24;61.80
40766;BME280;26474;52.556;13.420;2022-07-10T04:38:01;101287.47;;;15.21;61.36
40766;BME280;26474;52.556;13.420;2022-07-10T04:40:28;101294.13;;;15.17;62.60
40766;BME280;26474;52.556;13.420;2022-07-10T04:42:54;101284.38;;;15.14;62.54
40766;BME280;26474;52.556;13.420;2022-07-10T04:45:20;101287.53;;;15.08;62.47
40766;BME280;26474;52.556;13.420;2022-07-10T04:47:47;101289.91;;;15.12;62.43
40766;BME280;26474;52.556;13.420;2022-07-10T04:50:13;101284.66;;;15.22;62.43
40766;BME280;26474;52.556;13.420;2022-07-10T04:52:40;101281.81;;;15.24;62.46
40766;BME280;26474;52.556;13.420;2022-07-10T04:55:06;101282.69;;;15.24;62.04
40766;BME280;26474;52.556;13.420;2022-07-10T04:57:33;101285.44;;;15.35;61.85
40766;BME280;26474;52.556;13.420;2022-07-10T05:00:00;101286.91;;;15.39;61.75
40766;BME280;26474;52.556;13.420;2022-07-10T05:02:26;101293.31;;;15.27;62.19
40766;BME280;26474;52.556;13.420;2022-07-10T05:04:53;101284.69;;;15.44;62.10
40766;BME280;26474;52.556;13.420;2022-07-10T05:07:19;101292.06;;;15.20;62.49
40766;BME280;26474;52.556;13.420;2022-07-10T05:09:46;101285.66;;;15.32;61.88
40766;BME280;26474;52.556;13.420;2022-07-10T05:12:12;101292.22;;;15.06;62.84
40766;BME280;26474;52.556;13.420;2022-07-10T05:14:38;101291.94;;;15.22;62.50
40766;BME280;26474;52.556;13.420;2022-07-10T05:17:05;101294.25;;;15.15;62.98
40766;BME280;26474;52.556;13.420;2022-07-10T05:19:31;101286.50;;;15.22;62.85
40766;BME280;26474;52.556;13.420;2022-07-10T05:21:58;101286.38;;;15.23;62.68
40766;BME280;26474;52.556;13.420;2022-07-10T05:24:24;101281.22;;;15.31;62.55
40766;BME280;26474;52.556;13.420;2022-07-10T05:26:51;101278.63;;;15.41;62.39
40766;BME280;26474;52.556;13.420;2022-07-10T05:29:17;101289.28;;;15.44;62.39
40766;BME280;26474;52.556;13.420;2022-07-10T05:31:43;101292.47;;;15.38;62.48
40766;BME280;26474;52.556;13.420;2022-07-10T05:34:10;101289.03;;;15.47;62.15
40766;BME280;26474;52.556;13.420;2022-07-10T05:37:01;101300.16;;;15.44;62.60
40766;BME280;26474;52.556;13.420;2022-07-10T05:39:28;101297.03;;;15.61;61.95
40766;BME280;26474;52.556;13.420;2022-07-10T05:41:54;101285.72;;;15.55;62.06
40766;BME280;26474;52.556;13.420;2022-07-10T05:44:22;101293.81;;;15.67;62.04
40766;BME280;26474;52.556;13.420;2022-07-10T05:46:48;101290.25;;;15.67;61.81
40766;BME280;26474;52.556;13.420;2022-07-10T05:49:15;101284.72;;;15.56;61.46
40766;BME280;26474;52.556;13.420;2022-07-10T05:51:42;101295.06;;;15.63;61.73
40766;BME280;26474;52.556;13.420;2022-07-10T05:54:10;101278.16;;;15.47;61.92
40766;BME280;26474;52.556;13.420;2022-07-10T05:56:37;101290.94;;;15.58;61.50
40766;BME280;26474;52.556;13.420;2022-07-10T05:59:04;101296.19;;;15.48;61.98
40766;BME280;26474;52.556;13.420;2022-07-10T06:01:30;101293.44;;;15.61;62.04
40766;BME280;26474;52.556;13.420;2022-07-10T06:03:57;101295.84;;;15.53;61.89
40766;BME280;26474;52.556;13.420;2022-07-10T06:06:24;101291.38;;;15.52;61.92
40766;BME280;26474;52.556;13.420;2022-07-10T06:08:50;101291.88;;;15.46;61.97
40766;BME280;26474;52.556;13.420;2022-07-10T06:11:17;101291.63;;;15.49;62.14
40766;BME280;26474;52.556;13.420;2022-07-10T06:13:43;101282.00;;;15.56;62.06
40766;BME280;26474;52.556;13.420;2022-07-10T06:16:10;101293.09;;;15.65;62.00
40766;BME280;26474;52.556;13.420;2022-07-10T06:18:36;101295.44;;;15.70;61.38
40766;BME280;26474;52.556;13.420;2022-07-10T06:21:03;101293.66;;;15.58;61.80
40766;BME280;26474;52.556;13.420;2022-07-10T06:23:30;101291.88;;;15.57;61.85
40766;BME280;26474;52.556;13.420;2022-07-10T06:25:56;101292.66;;;15.59;61.68
40766;BME280;26474;52.556;13.420;2022-07-10T06:28:23;101299.50;;;15.64;61.50
40766;BME280;26474;52.556;13.420;2022-07-10T06:30:49;101300.63;;;15.73;61.41
40766;BME280;26474;52.556;13.420;2022-07-10T06:33:20;101289.63;;;15.74;60.65
40766;BME280;26474;52.556;13.420;2022-07-10T06:35:46;101297.31;;;15.57;60.65
40766;BME280;26474;52.556;13.420;2022-07-10T06:38:13;101290.97;;;15.69;60.32
40766;BME280;26474;52.556;13.420;2022-07-10T06:40:41;101294.19;;;15.63;60.41
40766;BME280;26474;52.556;13.420;2022-07-10T06:43:08;101295.19;;;15.73;60.30
40766;BME280;26474;52.556;13.420;2022-07-10T06:45:34;101298.91;;;15.72;59.88
40766;BME280;26474;52.556;13.420;2022-07-10T06:48:01;101292.66;;;15.59;60.10
40766;BME280;26474;52.556;13.420;2022-07-10T06:50:29;101302.88;;;15.55;60.50
40766;BME280;26474;52.556;13.420;2022-07-10T06:53:01;101300.38;;;15.65;60.40
40766;BME280;26474;52.556;13.420;2022-07-10T06:55:29;101298.75;;;15.62;60.19
40766;BME280;26474;52.556;13.420;2022-07-10T06:57:56;101295.78;;;15.65;60.14
40766;BME280;26474;52.556;13.420;2022-07-10T07:00:23;101295.19;;;15.73;59.73
40766;BME280;26474;52.556;13.420;2022-07-10T07:02:50;101301.25;;;15.65;60.09
40766;BME280;26474;52.556;13.420;2022-07-10T07:05:17;101285.56;;;15.91;59.04
40766;BME280;26474;52.556;13.420;2022-07-10T07:07:44;101290.00;;;15.92;58.09
40766;BME280;26474;52.556;13.420;2022-07-10T07:10:11;101287.03;;;16.06;57.49
40766;BME280;26474;52.556;13.420;2022-07-10T07:12:38;101283.06;;;16.33;57.14
40766;BME280;26474;52.556;13.420;2022-07-10T07:15:05;101281.19;;;16.45;56.45
40766;BME280;26474;52.556;13.420;2022-07-10T07:17:32;101281.56;;;16.62;55.60
40766;BME280;26474;52.556;13.420;2022-07-10T07:20:12;101279.84;;;17.05;54.19
40766;BME280;26474;52.556;13.420;2022-07-10T07:22:57;101281.84;;;17.23;53.27
40766;BME280;26474;52.556;13.420;2022-07-10T07:25:36;101286.44;;;17.44;52.99
40766;BME280;26474;52.556;13.420;2022-07-10T07:28:04;101283.97;;;17.41;53.12
40766;BME280;26474;52.556;13.420;2022-07-10T07:30:30;101281.13;;;17.42;52.79
40766;BME280;26474;52.556;13.420;2022-07-10T07:32:57;101286.09;;;17.37;52.65
40766;BME280;26474;52.556;13.420;2022-07-10T07:35:23;101274.50;;;17.56;51.52
40766;BME280;26474;52.556;13.420;2022-07-10T07:37:50;101289.31;;;17.42;52.65
40766;BME280;26474;52.556;13.420;2022-07-10T07:40:21;101282.50;;;17.69;51.92
40766;BME280;26474;52.556;13.420;2022-07-10T07:42:53;101285.66;;;17.53;51.39
40766;BME280;26474;52.556;13.420;2022-07-10T07:45:22;101292.44;;;17.38;50.77
40766;BME280;26474;52.556;13.420;2022-07-10T07:47:54;101297.72;;;17.71;49.67
40766;BME280;26474;52.556;13.420;2022-07-10T07:50:28;101285.00;;;17.60;47.91
40766;BME280;26474;52.556;13.420;2022-07-10T07:52:55;101292.78;;;17.65;48.86
40766;BME280;26474;52.556;13.420;2022-07-10T07:55:22;101296.31;;;17.98;48.92
40766;BME280;26474;52.556;13.420;2022-07-10T07:57:51;101293.69;;;17.96;48.80
40766;BME280;26474;52.556;13.420;2022-07-10T08:00:20;101289.13;;;17.55;48.85
40766;BME280;26474;52.556;13.420;2022-07-10T08:02:49;101292.31;;;17.60;49.28
40766;BME280;26474;52.556;13.420;2022-07-10T08:05:16;101289.94;;;17.67;49.65
40766;BME280;26474;52.556;13.420;2022-07-10T08:07:49;101287.81;;;17.70;49.33
40766;BME280;26474;52.556;13.420;2022-07-10T08:10:17;101285.44;;;17.86;48.29
40766;BME280;26474;52.556;13.420;2022-07-10T08:12:45;101289.72;;;17.79;48.48
40766;BME280;26474;52.556;13.420;2022-07-10T08:15:14;101292.59;;;17.99;48.57
40766;BME280;26474;52.556;13.420;2022-07-10T08:17:40;101291.22;;;18.14;47.80
40766;BME280;26474;52.556;13.420;2022-07-10T08:20:11;101280.72;;;18.49;47.64
40766;BME280;26474;52.556;13.420;2022-07-10T08:22:39;101283.56;;;18.48;46.54
40766;BME280;26474;52.556;13.420;2022-07-10T08:25:06;101283.75;;;18.56;46.50
40766;BME280;26474;52.556;13.420;2022-07-10T08:27:32;101286.03;;;18.61;45.67
40766;BME280;26474;52.556;13.420;2022-07-10T08:29:59;101281.53;;;19.09;44.80
40766;BME280;26474;52.556;13.420;2022-07-10T08:32:26;101279.94;;;19.26;44.77
40766;BME280;26474;52.556;13.420;2022-07-10T08:34:54;101278.81;;;19.19;44.76
40766;BME280;26474;52.556;13.420;2022-07-10T08:37:20;101277.78;;;19.30;44.72
40766;BME280;26474;52.556;13.420;2022-07-10T08:39:47;101281.09;;;19.24;43.11
40766;BME280;26474;52.556;13.420;2022-07-10T08:42:15;101276.16;;;19.75;41.94
40766;BME280;26474;52.556;13.420;2022-07-10T08:44:41;101285.31;;;20.03;41.40
40766;BME280;26474;52.556;13.420;2022-07-10T08:47:08;101280.13;;;20.00;40.50
40766;BME280;26474;52.556;13.420;2022-07-10T08:49:35;101283.94;;;20.17;40.77
40766;BME280;26474;52.556;13.420;2022-07-10T08:52:05;101275.56;;;19.91;40.92
40766;BME280;26474;52.556;13.420;2022-07-10T08:54:33;101289.63;;;20.06;40.89
40766;BME280;26474;52.556;13.420;2022-07-10T08:57:02;101277.03;;;19.76;40.63
40766;BME280;26474;52.556;13.420;2022-07-10T08:59:29;101295.50;;;19.64;41.18
40766;BME280;26474;52.556;13.420;2022-07-10T09:01:58;101298.22;;;19.35;42.69
40766;BME280;26474;52.556;13.420;2022-07-10T09:04:26;101299.66;;;19.10;43.01
40766;BME280;26474;52.556;13.420;2022-07-10T09:06:54;101302.41;;;19.01;43.51
40766;BME280;26474;52.556;13.420;2022-07-10T09:09:21;101301.78;;;18.87;43.90
40766;BME280;26474;52.556;13.420;2022-07-10T09:11:47;101304.38;;;18.89;44.53
40766;BME280;26474;52.556;13.420;2022-07-10T09:14:15;101296.09;;;18.50;44.75
40766;BME280;26474;52.556;13.420;2022-07-10T09:16:58;101300.81;;;18.48;44.58
40766;BME280;26474;52.556;13.420;2022-07-10T09:19:28;101300.44;;;18.22;45.16
40766;BME280;26474;52.556;13.420;2022-07-10T09:22:03;101292.06;;;18.14;45.50
40766;BME280;26474;52.556;13.420;2022-07-10T09:24:38;101304.75;;;18.25;45.44
40766;BME280;26474;52.556;13.420;2022-07-10T09:27:06;101311.75;;;18.18;45.63
40766;BME280;26474;52.556;13.420;2022-07-10T09:29:44;101302.78;;;18.37;45.47
40766;BME280;26474;52.556;13.420;2022-07-10T09:32:12;101300.28;;;18.54;44.64
40766;BME280;26474;52.556;13.420;2022-07-10T09:34:43;101306.66;;;18.65;43.54
40766;BME280;26474;52.556;13.420;2022-07-10T09:37:19;101301.66;;;18.89;43.73
40766;BME280;26474;52.556;13.420;2022-07-10T09:42:29;101303.94;;;18.84;43.93
40766;BME280;26474;52.556;13.420;2022-07-10T09:47:54;101302.06;;;18.75;44.34
40766;BME280;26474;52.556;13.420;2022-07-10T09:52:59;101301.28;;;18.53;44.22
40766;BME280;26474;52.556;13.420;2022-07-10T09:55:27;101294.88;;;18.74;43.03
40766;BME280;26474;52.556;13.420;2022-07-10T09:58:01;101300.38;;;19.03;43.50
40766;BME280;26474;52.556;13.420;2022-07-10T10:00:29;101292.63;;;18.98;43.56
40766;BME280;26474;52.556;13.420;2022-07-10T10:03:01;101300.69;;;19.09;43.08
40766;BME280;26474;52.556;13.420;2022-07-10T10:05:45;101302.53;;;19.28;43.13
40766;BME280;26474;52.556;13.420;2022-07-10T10:08:25;101302.97;;;19.33;43.16
40766;BME280;26474;52.556;13.420;2022-07-10T10:10:56;101304.56;;;19.07;43.17
40766;BME280;26474;52.556;13.420;2022-07-10T10:13:24;101303.56;;;19.08;43.60
40766;BME280;26474;52.556;13.420;2022-07-10T10:15:54;101305.94;;;18.82;44.25
40766;BME280;26474;52.556;13.420;2022-07-10T10:18:23;101301.19;;;18.34;44.67
40766;BME280;26474;52.556;13.420;2022-07-10T10:20:52;101308.25;;;18.37;45.08
40766;BME280;26474;52.556;13.420;2022-07-10T10:23:24;101298.59;;;18.33;45.28
40766;BME280;26474;52.556;13.420;2022-07-10T10:25:56;101308.75;;;18.61;45.08
40766;BME280;26474;52.556;13.420;2022-07-10T10:28:24;101316.00;;;18.72;44.89
40766;BME280;26474;52.556;13.420;2022-07-10T10:30:53;101311.78;;;18.58;44.26
40766;BME280;26474;52.556;13.420;2022-07-10T10:35:57;101318.16;;;18.68;43.56
40766;BME280;26474;52.556;13.420;2022-07-10T10:38:24;101313.44;;;18.80;44.14
40766;BME280;26474;52.556;13.420;2022-07-10T10:40:51;101314.16;;;18.82;43.22
40766;BME280;26474;52.556;13.420;2022-07-10T10:43:24;101323.97;;;18.94;43.22
40766;BME280;26474;52.556;13.420;2022-07-10T10:45:50;101320.97;;;18.57;43.21
40766;BME280;26474;52.556;13.420;2022-07-10T10:48:18;101320.31;;;18.65;43.44
40766;BME280;26474;52.556;13.420;2022-07-10T10:51:04;101319.34;;;18.85;43.43
40766;BME280;26474;52.556;13.420;2022-07-10T10:53:30;101323.50;;;18.79;43.20
40766;BME280;26474;52.556;13.420;2022-07-10T10:58:45;101321.69;;;18.99;43.55
40766;BME280;26474;52.556;13.420;2022-07-10T11:06:48;101323.94;;;18.84;42.73
40766;BME280;26474;52.556;13.420;2022-07-10T11:09:29;101320.25;;;19.14;43.42
40766;BME280;26474;52.556;13.420;2022-07-10T11:12:06;101319.25;;;19.15;43.09
40766;BME280;26474;52.556;13.420;2022-07-10T11:14:34;101320.25;;;19.24;42.24
40766;BME280;26474;52.556;13.420;2022-07-10T11:17:03;101320.66;;;19.29;41.98
40766;BME280;26474;52.556;13.420;2022-07-10T11:19:31;101320.81;;;19.37;42.34
40766;BME280;26474;52.556;13.420;2022-07-10T11:24:58;101323.03;;;19.53;43.39
40766;BME280;26474;52.556;13.420;2022-07-10T11:27:55;101332.47;;;19.30;41.91
40766;BME280;26474;52.556;13.420;2022-07-10T11:30:23;101329.75;;;19.49;42.63
40766;BME280;26474;52.556;13.420;2022-07-10T11:32:50;101329.03;;;19.47;42.10
40766;BME280;26474;52.556;13.420;2022-07-10T11:35:18;101337.53;;;19.44;42.66
40766;BME280;26474;52.556;13.420;2022-07-10T11:37:51;101332.34;;;19.41;43.28
40766;BME280;26474;52.556;13.420;2022-07-10T11:40:19;101329.59;;;19.50;42.59
40766;BME280;26474;52.556;13.420;2022-07-10T11:42:50;101327.84;;;19.78;41.80
40766;BME280;26474;52.556;13.420;2022-07-10T11:47:51;101329.75;;;19.88;41.90
40766;BME280;26474;52.556;13.420;2022-07-10T11:50:17;101324.16;;;19.60;41.11
40766;BME280;26474;52.556;13.420;2022-07-10T11:52:45;101330.34;;;19.53;41.30
40766;BME280;26474;52.556;13.420;2022-07-10T11:55:21;101338.69;;;19.61;41.52
40766;BME280;26474;52.556;13.420;2022-07-10T11:57:48;101325.75;;;19.53;41.80
40766;BME280;26474;52.556;13.420;2022-07-10T12:00:26;101330.31;;;19.04;41.92
40766;BME280;26474;52.556;13.420;2022-07-10T12:02:54;101332.03;;;19.25;42.49
40766;BME280;26474;52.556;13.420;2022-07-10T12:05:34;101326.72;;;19.23;43.26
40766;BME280;26474;52.556;13.420;2022-07-10T12:08:02;101328.31;;;19.35;43.15
40766;BME280;26474;52.556;13.420;2022-07-10T12:10:31;101319.69;;;19.40;42.42
40766;BME280;26474;52.556;13.420;2022-07-10T12:13:11;101322.25;;;19.32;42.50
40766;BME280;26474;52.556;13.420;2022-07-10T12:15:40;101329.03;;;19.28;41.85
40766;BME280;26474;52.556;13.420;2022-07-10T12:18:08;101316.50;;;19.15;42.12
40766;BME280;26474;52.556;13.420;2022-07-10T12:20:37;101332.03;;;19.25;41.75
40766;BME280;26474;52.556;13.420;2022-07-10T12:23:04;101332.63;;;19.28;41.75
40766;BME280;26474;52.556;13.420;2022-07-10T12:25:31;101325.72;;;19.34;42.37
40766;BME280;26474;52.556;13.420;2022-07-10T12:27:58;101337.81;;;19.31;42.17
40766;BME280;26474;52.556;13.420;2022-07-10T12:30:46;101333.94;;;19.43;42.05
40766;BME280;26474;52.556;13.420;2022-07-10T12:33:15;101336.81;;;19.42;42.25
40766;BME280;26474;52.556;13.420;2022-07-10T12:35:55;101336.97;;;19.60;41.52
40766;BME280;26474;52.556;13.420;2022-07-10T12:38:24;101325.75;;;19.63;42.14
40766;BME280;26474;52.556;13.420;2022-07-10T12:41:06;101336.53;;;19.64;42.22
40766;BME280;26474;52.556;13.420;2022-07-10T12:43:33;101334.09;;;19.61;41.38
40766;BME280;26474;52.556;13.420;2022-07-10T12:48:43;101324.00;;;19.42;41.49
40766;BME280;26474;52.556;13.420;2022-07-10T12:51:25;101329.91;;;19.47;41.76
40766;BME280;26474;52.556;13.420;2022-07-10T12:53:52;101321.09;;;19.34;41.26
40766;BME280;26474;52.556;13.420;2022-07-10T12:56:35;101326.75;;;19.42;41.66
40766;BME280;26474;52.556;13.420;2022-07-10T12:59:05;101329.75;;;19.68;41.64
40766;BME280;26474;52.556;13.420;2022-07-10T13:01:44;101331.47;;;19.69;42.26
40766;BME280;26474;52.556;13.420;2022-07-10T13:04:11;101321.53;;;19.68;42.10
40766;BME280;26474;52.556;13.420;2022-07-10T13:06:39;101332.31;;;19.79;41.55
40766;BME280;26474;52.556;13.420;2022-07-10T13:09:19;101327.19;;;19.57;42.00
40766;BME280;26474;52.556;13.420;2022-07-10T13:11:46;101334.91;;;19.81;41.60
40766;BME280;26474;52.556;13.420;2022-07-10T13:14:12;101334.06;;;19.80;41.45